Urb Pastor Felix Rios Lopez, Puerto Rico
Current Conditions -  °F | °C
As of 7:53 AM on Monday 20 Oct 2014 (Local Time) from TJNR Reporting Station
Scattered Clouds Scattered Clouds  
Wind Chill: 28°   Ceiling: Unl
Heat Index: 33°   Visibility: 10mi
Dew Point: 24°   Wind: 6mph
Humidity: 79%   Direction: 350°N
Pressure: 30"   Gusts: NA
Location:  18.2667°N, 65.6476°W
Report Text: TJNR 201153Z AUTO 35005KT 10SM SCT025 SCT032 28/24 A3000 RMK AO2 SLP157 70013 T02830244 10283 20239 53017 $
Loading
Personal Weather Stations






























Interactive Weather Map
Tropical Storm Tracking
New forecast layout! Learn more

10-Day Weather Forecast

Advertisements
Track Severe Weather on mobile